sensor_id;sensor_type;location;lat;lon;timestamp;P1;durP1;ratioP1;P2;durP2;ratioP2
10586;SDS011;5341;47.606;7.576;2024-02-21T00:01:53;6.90;;;3.55;;
10586;SDS011;5341;47.606;7.576;2024-02-21T00:04:20;7.60;;;3.83;;
10586;SDS011;5341;47.606;7.576;2024-02-21T00:06:47;9.68;;;4.05;;
10586;SDS011;5341;47.606;7.576;2024-02-21T00:09:14;7.55;;;3.72;;
10586;SDS011;5341;47.606;7.576;2024-02-21T00:11:42;6.47;;;3.70;;
10586;SDS011;5341;47.606;7.576;2024-02-21T00:14:09;10.05;;;3.92;;
10586;SDS011;5341;47.606;7.576;2024-02-21T00:16:38;6.70;;;3.80;;
10586;SDS011;5341;47.606;7.576;2024-02-21T00:19:05;9.23;;;4.38;;
10586;SDS011;5341;47.606;7.576;2024-02-21T00:21:32;7.45;;;3.70;;
10586;SDS011;5341;47.606;7.576;2024-02-21T00:24:00;8.02;;;3.90;;
10586;SDS011;5341;47.606;7.576;2024-02-21T00:26:28;9.27;;;3.97;;
10586;SDS011;5341;47.606;7.576;2024-02-21T00:28:55;7.07;;;3.88;;
10586;SDS011;5341;47.606;7.576;2024-02-21T00:31:22;7.47;;;3.50;;
10586;SDS011;5341;47.606;7.576;2024-02-21T00:33:51;9.23;;;4.10;;
10586;SDS011;5341;47.606;7.576;2024-02-21T00:36:19;8.02;;;4.07;;
10586;SDS011;5341;47.606;7.576;2024-02-21T00:38:46;6.82;;;3.72;;
10586;SDS011;5341;47.606;7.576;2024-02-21T00:41:14;7.22;;;3.63;;
10586;SDS011;5341;47.606;7.576;2024-02-21T00:43:41;7.93;;;3.58;;
10586;SDS011;5341;47.606;7.576;2024-02-21T00:46:09;11.18;;;4.10;;
10586;SDS011;5341;47.606;7.576;2024-02-21T00:48:36;5.95;;;3.72;;
10586;SDS011;5341;47.606;7.576;2024-02-21T00:51:05;5.35;;;4.10;;
10586;SDS011;5341;47.606;7.576;2024-02-21T00:53:32;6.80;;;4.18;;
10586;SDS011;5341;47.606;7.576;2024-02-21T00:56:04;7.28;;;3.88;;
10586;SDS011;5341;47.606;7.576;2024-02-21T00:58:31;7.63;;;4.25;;
10586;SDS011;5341;47.606;7.576;2024-02-21T01:00:59;6.25;;;4.18;;
10586;SDS011;5341;47.606;7.576;2024-02-21T01:03:28;8.05;;;4.03;;
10586;SDS011;5341;47.606;7.576;2024-02-21T01:05:55;6.72;;;3.95;;
10586;SDS011;5341;47.606;7.576;2024-02-21T01:08:24;8.07;;;4.38;;
10586;SDS011;5341;47.606;7.576;2024-02-21T01:10:51;7.45;;;4.05;;
10586;SDS011;5341;47.606;7.576;2024-02-21T01:13:19;6.47;;;3.67;;
10586;SDS011;5341;47.606;7.576;2024-02-21T01:15:46;7.55;;;4.10;;
10586;SDS011;5341;47.606;7.576;2024-02-21T01:18:13;8.75;;;3.95;;
10586;SDS011;5341;47.606;7.576;2024-02-21T01:20:41;5.68;;;4.03;;
10586;SDS011;5341;47.606;7.576;2024-02-21T01:23:08;6.10;;;3.60;;
10586;SDS011;5341;47.606;7.576;2024-02-21T01:25:37;8.90;;;3.70;;
10586;SDS011;5341;47.606;7.576;2024-02-21T01:28:04;8.18;;;3.97;;
10586;SDS011;5341;47.606;7.576;2024-02-21T01:30:32;6.43;;;3.83;;
10586;SDS011;5341;47.606;7.576;2024-02-21T01:32:59;6.07;;;3.55;;
10586;SDS011;5341;47.606;7.576;2024-02-21T01:35:26;6.72;;;3.38;;
10586;SDS011;5341;47.606;7.576;2024-02-21T01:37:53;8.00;;;3.42;;
10586;SDS011;5341;47.606;7.576;2024-02-21T01:40:21;7.95;;;3.78;;
10586;SDS011;5341;47.606;7.576;2024-02-21T01:42:50;6.38;;;3.70;;
10586;SDS011;5341;47.606;7.576;2024-02-21T01:45:19;7.13;;;3.97;;
10586;SDS011;5341;47.606;7.576;2024-02-21T01:47:46;8.38;;;3.92;;
10586;SDS011;5341;47.606;7.576;2024-02-21T01:50:14;8.35;;;3.63;;
10586;SDS011;5341;47.606;7.576;2024-02-21T01:52:42;6.70;;;4.05;;
10586;SDS011;5341;47.606;7.576;2024-02-21T01:55:13;6.68;;;4.35;;
10586;SDS011;5341;47.606;7.576;2024-02-21T01:57:41;6.93;;;4.18;;
10586;SDS011;5341;47.606;7.576;2024-02-21T02:00:15;11.50;;;5.00;;
10586;SDS011;5341;47.606;7.576;2024-02-21T02:02:44;9.80;;;4.80;;
10586;SDS011;5341;47.606;7.576;2024-02-21T02:05:12;7.63;;;4.68;;
10586;SDS011;5341;47.606;7.576;2024-02-21T02:07:40;7.28;;;4.45;;
10586;SDS011;5341;47.606;7.576;2024-02-21T02:10:07;6.55;;;3.97;;
10586;SDS011;5341;47.606;7.576;2024-02-21T02:12:35;6.00;;;4.20;;
10586;SDS011;5341;47.606;7.576;2024-02-21T02:15:03;8.15;;;4.43;;
10586;SDS011;5341;47.606;7.576;2024-02-21T02:17:32;7.05;;;3.97;;
10586;SDS011;5341;47.606;7.576;2024-02-21T02:19:59;9.35;;;4.60;;
10586;SDS011;5341;47.606;7.576;2024-02-21T02:22:28;8.80;;;4.45;;
10586;SDS011;5341;47.606;7.576;2024-02-21T02:24:57;7.50;;;3.90;;
10586;SDS011;5341;47.606;7.576;2024-02-21T02:27:24;7.95;;;4.57;;
10586;SDS011;5341;47.606;7.576;2024-02-21T02:29:52;5.85;;;4.07;;
10586;SDS011;5341;47.606;7.576;2024-02-21T02:32:19;6.80;;;4.20;;
10586;SDS011;5341;47.606;7.576;2024-02-21T02:34:46;9.48;;;3.97;;
10586;SDS011;5341;47.606;7.576;2024-02-21T02:37:14;6.95;;;3.80;;
10586;SDS011;5341;47.606;7.576;2024-02-21T02:39:41;4.68;;;3.55;;
10586;SDS011;5341;47.606;7.576;2024-02-21T02:42:10;5.60;;;3.70;;
10586;SDS011;5341;47.606;7.576;2024-02-21T02:44:38;5.10;;;3.58;;
10586;SDS011;5341;47.606;7.576;2024-02-21T02:47:05;5.13;;;3.47;;
10586;SDS011;5341;47.606;7.576;2024-02-21T02:49:32;5.65;;;3.67;;
10586;SDS011;5341;47.606;7.576;2024-02-21T02:51:59;6.40;;;3.35;;
10586;SDS011;5341;47.606;7.576;2024-02-21T02:54:27;7.32;;;3.47;;
10586;SDS011;5341;47.606;7.576;2024-02-21T02:56:54;5.40;;;3.60;;
10586;SDS011;5341;47.606;7.576;2024-02-21T02:59:23;6.47;;;3.50;;
10586;SDS011;5341;47.606;7.576;2024-02-21T03:01:50;8.55;;;3.53;;
10586;SDS011;5341;47.606;7.576;2024-02-21T03:04:18;5.80;;;3.40;;
10586;SDS011;5341;47.606;7.576;2024-02-21T03:06:45;6.20;;;3.22;;
10586;SDS011;5341;47.606;7.576;2024-02-21T03:09:12;4.68;;;3.00;;
10586;SDS011;5341;47.606;7.576;2024-02-21T03:11:40;6.57;;;3.45;;
10586;SDS011;5341;47.606;7.576;2024-02-21T03:14:09;4.47;;;3.10;;
10586;SDS011;5341;47.606;7.576;2024-02-21T03:16:38;7.15;;;3.67;;
10586;SDS011;5341;47.606;7.576;2024-02-21T03:19:05;8.10;;;3.42;;
10586;SDS011;5341;47.606;7.576;2024-02-21T03:21:33;5.18;;;3.03;;
10586;SDS011;5341;47.606;7.576;2024-02-21T03:24:00;6.32;;;3.53;;
10586;SDS011;5341;47.606;7.576;2024-02-21T03:26:27;4.88;;;3.38;;
10586;SDS011;5341;47.606;7.576;2024-02-21T03:28:54;5.68;;;2.80;;
10586;SDS011;5341;47.606;7.576;2024-02-21T03:31:22;4.15;;;2.97;;
10586;SDS011;5341;47.606;7.576;2024-02-21T03:33:50;5.70;;;3.28;;
10586;SDS011;5341;47.606;7.576;2024-02-21T03:36:17;5.38;;;2.97;;
10586;SDS011;5341;47.606;7.576;2024-02-21T03:38:45;5.38;;;3.20;;
10586;SDS011;5341;47.606;7.576;2024-02-21T03:41:13;5.80;;;3.20;;
10586;SDS011;5341;47.606;7.576;2024-02-21T03:43:40;6.00;;;3.53;;
10586;SDS011;5341;47.606;7.576;2024-02-21T03:46:07;4.75;;;3.00;;
10586;SDS011;5341;47.606;7.576;2024-02-21T03:48:35;5.43;;;3.33;;
10586;SDS011;5341;47.606;7.576;2024-02-21T03:51:05;6.93;;;2.97;;
10586;SDS011;5341;47.606;7.576;2024-02-21T03:53:32;6.22;;;2.92;;
10586;SDS011;5341;47.606;7.576;2024-02-21T03:56:01;5.57;;;3.30;;
10586;SDS011;5341;47.606;7.576;2024-02-21T03:58:29;5.47;;;3.42;;
10586;SDS011;5341;47.606;7.576;2024-02-21T04:00:59;5.75;;;3.38;;
10586;SDS011;5341;47.606;7.576;2024-02-21T04:03:27;4.13;;;2.70;;
10586;SDS011;5341;47.606;7.576;2024-02-21T04:05:55;5.85;;;3.28;;
10586;SDS011;5341;47.606;7.576;2024-02-21T04:08:24;6.40;;;3.50;;
10586;SDS011;5341;47.606;7.576;2024-02-21T04:10:51;6.35;;;3.58;;
10586;SDS011;5341;47.606;7.576;2024-02-21T04:13:19;5.95;;;3.58;;
10586;SDS011;5341;47.606;7.576;2024-02-21T04:15:47;8.35;;;3.60;;
10586;SDS011;5341;47.606;7.576;2024-02-21T04:18:14;5.82;;;3.40;;
10586;SDS011;5341;47.606;7.576;2024-02-21T04:20:42;5.78;;;3.30;;
10586;SDS011;5341;47.606;7.576;2024-02-21T04:23:09;8.60;;;3.40;;
10586;SDS011;5341;47.606;7.576;2024-02-21T04:25:38;5.18;;;3.35;;
10586;SDS011;5341;47.606;7.576;2024-02-21T04:28:05;5.32;;;3.58;;
10586;SDS011;5341;47.606;7.576;2024-02-21T04:30:33;6.30;;;3.25;;
10586;SDS011;5341;47.606;7.576;2024-02-21T04:33:01;5.82;;;3.20;;
10586;SDS011;5341;47.606;7.576;2024-02-21T04:35:28;5.88;;;3.47;;
10586;SDS011;5341;47.606;7.576;2024-02-21T04:37:55;5.38;;;3.10;;
10586;SDS011;5341;47.606;7.576;2024-02-21T04:40:23;5.05;;;3.28;;
10586;SDS011;5341;47.606;7.576;2024-02-21T04:42:52;7.22;;;3.58;;
10586;SDS011;5341;47.606;7.576;2024-02-21T04:45:19;4.43;;;3.20;;
10586;SDS011;5341;47.606;7.576;2024-02-21T04:47:46;8.95;;;3.80;;
10586;SDS011;5341;47.606;7.576;2024-02-21T04:50:14;5.97;;;3.45;;
10586;SDS011;5341;47.606;7.576;2024-02-21T04:52:41;7.40;;;3.90;;
10586;SDS011;5341;47.606;7.576;2024-02-21T04:55:09;6.90;;;3.92;;
10586;SDS011;5341;47.606;7.576;2024-02-21T04:57:37;6.13;;;3.25;;
10586;SDS011;5341;47.606;7.576;2024-02-21T05:00:07;6.45;;;3.70;;
10586;SDS011;5341;47.606;7.576;2024-02-21T05:02:35;6.82;;;3.58;;
10586;SDS011;5341;47.606;7.576;2024-02-21T05:05:02;6.13;;;3.40;;
10586;SDS011;5341;47.606;7.576;2024-02-21T05:07:30;5.10;;;3.22;;
10586;SDS011;5341;47.606;7.576;2024-02-21T05:09:57;7.50;;;3.53;;
10586;SDS011;5341;47.606;7.576;2024-02-21T05:12:25;5.15;;;3.15;;
10586;SDS011;5341;47.606;7.576;2024-02-21T05:14:52;6.80;;;4.15;;
10586;SDS011;5341;47.606;7.576;2024-02-21T05:17:21;6.18;;;3.40;;
10586;SDS011;5341;47.606;7.576;2024-02-21T05:19:48;6.32;;;3.53;;
10586;SDS011;5341;47.606;7.576;2024-02-21T05:22:15;5.72;;;3.35;;
10586;SDS011;5341;47.606;7.576;2024-02-21T05:24:42;10.20;;;3.55;;
10586;SDS011;5341;47.606;7.576;2024-02-21T05:27:10;4.95;;;3.60;;
10586;SDS011;5341;47.606;7.576;2024-02-21T05:29:37;5.38;;;3.28;;
10586;SDS011;5341;47.606;7.576;2024-02-21T05:32:04;6.07;;;3.47;;
10586;SDS011;5341;47.606;7.576;2024-02-21T05:34:33;6.38;;;3.33;;
10586;SDS011;5341;47.606;7.576;2024-02-21T05:37:01;6.45;;;3.55;;
10586;SDS011;5341;47.606;7.576;2024-02-21T05:39:28;4.93;;;3.28;;
10586;SDS011;5341;47.606;7.576;2024-02-21T05:41:55;7.75;;;3.80;;
10586;SDS011;5341;47.606;7.576;2024-02-21T05:44:23;6.18;;;3.70;;
10586;SDS011;5341;47.606;7.576;2024-02-21T05:46:51;7.88;;;3.72;;
10586;SDS011;5341;47.606;7.576;2024-02-21T05:49:18;5.85;;;3.90;;
10586;SDS011;5341;47.606;7.576;2024-02-21T05:51:47;5.65;;;3.60;;
10586;SDS011;5341;47.606;7.576;2024-02-21T05:54:14;7.03;;;3.90;;
10586;SDS011;5341;47.606;7.576;2024-02-21T05:56:43;5.78;;;3.92;;
10586;SDS011;5341;47.606;7.576;2024-02-21T05:59:12;7.38;;;3.97;;
10586;SDS011;5341;47.606;7.576;2024-02-21T06:01:40;6.00;;;4.18;;
10586;SDS011;5341;47.606;7.576;2024-02-21T06:04:06;6.90;;;3.60;;
10586;SDS011;5341;47.606;7.576;2024-02-21T06:06:33;6.30;;;3.92;;
10586;SDS011;5341;47.606;7.576;2024-02-21T06:09:02;8.80;;;4.25;;
10586;SDS011;5341;47.606;7.576;2024-02-21T06:11:29;7.40;;;4.07;;
10586;SDS011;5341;47.606;7.576;2024-02-21T06:13:57;9.95;;;4.22;;
10586;SDS011;5341;47.606;7.576;2024-02-21T06:16:24;5.07;;;4.07;;
10586;SDS011;5341;47.606;7.576;2024-02-21T06:18:51;7.05;;;4.15;;
10586;SDS011;5341;47.606;7.576;2024-02-21T06:21:19;8.02;;;4.70;;
10586;SDS011;5341;47.606;7.576;2024-02-21T06:23:46;7.95;;;4.07;;
10586;SDS011;5341;47.606;7.576;2024-02-21T06:26:15;9.10;;;4.40;;
10586;SDS011;5341;47.606;7.576;2024-02-21T06:28:43;8.10;;;4.40;;
10586;SDS011;5341;47.606;7.576;2024-02-21T06:31:12;8.85;;;4.35;;
10586;SDS011;5341;47.606;7.576;2024-02-21T06:33:40;9.93;;;4.50;;
10586;SDS011;5341;47.606;7.576;2024-02-21T06:36:08;9.77;;;4.15;;
10586;SDS011;5341;47.606;7.576;2024-02-21T06:38:35;9.25;;;4.03;;
10586;SDS011;5341;47.606;7.576;2024-02-21T06:41:03;8.52;;;4.15;;
10586;SDS011;5341;47.606;7.576;2024-02-21T06:43:31;7.32;;;4.30;;
10586;SDS011;5341;47.606;7.576;2024-02-21T06:45:59;7.60;;;3.92;;
10586;SDS011;5341;47.606;7.576;2024-02-21T06:48:27;7.20;;;3.97;;
10586;SDS011;5341;47.606;7.576;2024-02-21T06:50:54;7.22;;;4.10;;
10586;SDS011;5341;47.606;7.576;2024-02-21T06:53:22;8.40;;;4.10;;
10586;SDS011;5341;47.606;7.576;2024-02-21T06:55:49;5.85;;;3.60;;
10586;SDS011;5341;47.606;7.576;2024-02-21T06:58:16;8.32;;;4.47;;
10586;SDS011;5341;47.606;7.576;2024-02-21T07:00:45;7.53;;;4.13;;
10586;SDS011;5341;47.606;7.576;2024-02-21T07:03:12;7.13;;;4.10;;
10586;SDS011;5341;47.606;7.576;2024-02-21T07:05:40;9.00;;;4.55;;
10586;SDS011;5341;47.606;7.576;2024-02-21T07:08:07;9.73;;;3.97;;
10586;SDS011;5341;47.606;7.576;2024-02-21T07:10:35;6.80;;;4.13;;
10586;SDS011;5341;47.606;7.576;2024-02-21T07:13:02;7.20;;;3.80;;
10586;SDS011;5341;47.606;7.576;2024-02-21T07:15:30;7.68;;;3.90;;
10586;SDS011;5341;47.606;7.576;2024-02-21T07:17:59;8.90;;;4.10;;
10586;SDS011;5341;47.606;7.576;2024-02-21T07:20:27;6.47;;;4.03;;
10586;SDS011;5341;47.606;7.576;2024-02-21T07:22:54;6.85;;;3.65;;
10586;SDS011;5341;47.606;7.576;2024-02-21T07:25:21;7.72;;;4.32;;
10586;SDS011;5341;47.606;7.576;2024-02-21T07:27:48;11.75;;;4.57;;
10586;SDS011;5341;47.606;7.576;2024-02-21T07:30:16;9.60;;;4.20;;
10586;SDS011;5341;47.606;7.576;2024-02-21T07:32:44;7.60;;;3.80;;
10586;SDS011;5341;47.606;7.576;2024-02-21T07:35:13;10.90;;;4.20;;
10586;SDS011;5341;47.606;7.576;2024-02-21T07:37:40;5.53;;;4.07;;
10586;SDS011;5341;47.606;7.576;2024-02-21T07:40:12;10.80;;;4.68;;
10586;SDS011;5341;47.606;7.576;2024-02-21T07:42:40;8.18;;;4.63;;
10586;SDS011;5341;47.606;7.576;2024-02-21T07:45:08;11.40;;;4.90;;
10586;SDS011;5341;47.606;7.576;2024-02-21T07:47:36;10.18;;;4.57;;
10586;SDS011;5341;47.606;7.576;2024-02-21T07:50:04;10.13;;;4.78;;
10586;SDS011;5341;47.606;7.576;2024-02-21T07:52:34;8.07;;;4.20;;
10586;SDS011;5341;47.606;7.576;2024-02-21T07:55:01;10.25;;;4.38;;
10586;SDS011;5341;47.606;7.576;2024-02-21T07:57:29;9.43;;;4.47;;
10586;SDS011;5341;47.606;7.576;2024-02-21T07:59:57;12.85;;;4.75;;
10586;SDS011;5341;47.606;7.576;2024-02-21T08:02:24;7.95;;;4.55;;
10586;SDS011;5341;47.606;7.576;2024-02-21T08:04:51;10.15;;;4.45;;
10586;SDS011;5341;47.606;7.576;2024-02-21T08:07:19;9.00;;;4.30;;
10586;SDS011;5341;47.606;7.576;2024-02-21T08:09:48;9.75;;;4.88;;
10586;SDS011;5341;47.606;7.576;2024-02-21T08:12:15;9.02;;;4.53;;
10586;SDS011;5341;47.606;7.576;2024-02-21T08:14:42;7.75;;;4.70;;
10586;SDS011;5341;47.606;7.576;2024-02-21T08:17:10;10.73;;;4.47;;
10586;SDS011;5341;47.606;7.576;2024-02-21T08:19:37;6.72;;;4.25;;
10586;SDS011;5341;47.606;7.576;2024-02-21T08:22:04;8.90;;;4.57;;
10586;SDS011;5341;47.606;7.576;2024-02-21T08:24:32;8.95;;;4.53;;
10586;SDS011;5341;47.606;7.576;2024-02-21T08:27:01;11.68;;;4.63;;
10586;SDS011;5341;47.606;7.576;2024-02-21T08:29:28;7.38;;;4.20;;
10586;SDS011;5341;47.606;7.576;2024-02-21T08:31:55;10.55;;;4.47;;
10586;SDS011;5341;47.606;7.576;2024-02-21T08:34:22;9.13;;;4.68;;
10586;SDS011;5341;47.606;7.576;2024-02-21T08:36:49;10.80;;;4.45;;
10586;SDS011;5341;47.606;7.576;2024-02-21T08:39:17;7.88;;;4.22;;
10586;SDS011;5341;47.606;7.576;2024-02-21T08:41:44;6.40;;;4.03;;
10586;SDS011;5341;47.606;7.576;2024-02-21T08:44:13;8.43;;;4.70;;
10586;SDS011;5341;47.606;7.576;2024-02-21T08:46:40;8.50;;;5.00;;
10586;SDS011;5341;47.606;7.576;2024-02-21T08:49:09;8.93;;;4.80;;
10586;SDS011;5341;47.606;7.576;2024-02-21T08:51:37;9.45;;;5.00;;
10586;SDS011;5341;47.606;7.576;2024-02-21T08:54:04;9.43;;;5.25;;
10586;SDS011;5341;47.606;7.576;2024-02-21T08:56:31;10.57;;;5.03;;
10586;SDS011;5341;47.606;7.576;2024-02-21T08:58:59;7.60;;;4.90;;
10586;SDS011;5341;47.606;7.576;2024-02-21T09:01:28;11.40;;;5.25;;
10586;SDS011;5341;47.606;7.576;2024-02-21T09:03:55;9.07;;;5.20;;
10586;SDS011;5341;47.606;7.576;2024-02-21T09:06:22;9.35;;;5.38;;
10586;SDS011;5341;47.606;7.576;2024-02-21T09:08:49;11.73;;;5.45;;
10586;SDS011;5341;47.606;7.576;2024-02-21T09:11:17;9.82;;;5.40;;
10586;SDS011;5341;47.606;7.576;2024-02-21T09:13:44;10.25;;;5.57;;
10586;SDS011;5341;47.606;7.576;2024-02-21T09:16:12;10.13;;;5.13;;
10586;SDS011;5341;47.606;7.576;2024-02-21T09:18:40;10.80;;;5.25;;
10586;SDS011;5341;47.606;7.576;2024-02-21T09:21:08;12.55;;;5.50;;
10586;SDS011;5341;47.606;7.576;2024-02-21T09:23:35;10.05;;;5.40;;
10586;SDS011;5341;47.606;7.576;2024-02-21T09:26:02;9.98;;;5.45;;
10586;SDS011;5341;47.606;7.576;2024-02-21T09:28:30;8.10;;;4.85;;
10586;SDS011;5341;47.606;7.576;2024-02-21T09:30:59;8.90;;;5.03;;
10586;SDS011;5341;47.606;7.576;2024-02-21T09:33:27;7.72;;;5.03;;
10586;SDS011;5341;47.606;7.576;2024-02-21T09:35:56;10.35;;;5.45;;
10586;SDS011;5341;47.606;7.576;2024-02-21T09:38:23;11.25;;;5.13;;
10586;SDS011;5341;47.606;7.576;2024-02-21T09:40:52;10.00;;;5.07;;
10586;SDS011;5341;47.606;7.576;2024-02-21T09:43:26;9.90;;;5.35;;
10586;SDS011;5341;47.606;7.576;2024-02-21T09:45:54;9.00;;;5.63;;
10586;SDS011;5341;47.606;7.576;2024-02-21T09:48:27;12.00;;;5.90;;
10586;SDS011;5341;47.606;7.576;2024-02-21T09:51:05;9.98;;;5.93;;
10586;SDS011;5341;47.606;7.576;2024-02-21T09:53:37;12.45;;;5.30;;
10586;SDS011;5341;47.606;7.576;2024-02-21T09:56:05;10.45;;;5.72;;
10586;SDS011;5341;47.606;7.576;2024-02-21T09:58:35;9.43;;;5.22;;
10586;SDS011;5341;47.606;7.576;2024-02-21T10:01:03;7.75;;;5.47;;
10586;SDS011;5341;47.606;7.576;2024-02-21T10:03:32;10.77;;;5.30;;
10586;SDS011;5341;47.606;7.576;2024-02-21T10:06:00;8.93;;;5.20;;
10586;SDS011;5341;47.606;7.576;2024-02-21T10:08:29;8.65;;;5.18;;
10586;SDS011;5341;47.606;7.576;2024-02-21T10:10:56;9.90;;;5.50;;
10586;SDS011;5341;47.606;7.576;2024-02-21T10:13:25;9.32;;;4.72;;
10586;SDS011;5341;47.606;7.576;2024-02-21T10:16:00;9.52;;;4.97;;
10586;SDS011;5341;47.606;7.576;2024-02-21T10:18:29;7.22;;;5.07;;
10586;SDS011;5341;47.606;7.576;2024-02-21T10:21:00;8.65;;;4.85;;
10586;SDS011;5341;47.606;7.576;2024-02-21T10:23:40;7.47;;;4.95;;
10586;SDS011;5341;47.606;7.576;2024-02-21T10:26:07;7.68;;;5.13;;
10586;SDS011;5341;47.606;7.576;2024-02-21T10:28:35;9.35;;;4.75;;
10586;SDS011;5341;47.606;7.576;2024-02-21T10:31:07;10.05;;;5.10;;
10586;SDS011;5341;47.606;7.576;2024-02-21T10:33:35;7.93;;;5.15;;
10586;SDS011;5341;47.606;7.576;2024-02-21T10:36:06;10.10;;;4.93;;
10586;SDS011;5341;47.606;7.576;2024-02-21T10:38:37;8.27;;;4.80;;
10586;SDS011;5341;47.606;7.576;2024-02-21T10:41:05;8.05;;;4.65;;
10586;SDS011;5341;47.606;7.576;2024-02-21T10:43:37;9.73;;;4.38;;
10586;SDS011;5341;47.606;7.576;2024-02-21T10:46:07;9.18;;;4.70;;
10586;SDS011;5341;47.606;7.576;2024-02-21T10:48:43;8.18;;;4.55;;
10586;SDS011;5341;47.606;7.576;2024-02-21T10:51:16;7.57;;;4.88;;
10586;SDS011;5341;47.606;7.576;2024-02-21T10:53:48;8.07;;;5.03;;
10586;SDS011;5341;47.606;7.576;2024-02-21T10:56:26;7.35;;;4.65;;
10586;SDS011;5341;47.606;7.576;2024-02-21T10:58:56;7.55;;;4.30;;
10586;SDS011;5341;47.606;7.576;2024-02-21T11:01:26;6.90;;;4.25;;
10586;SDS011;5341;47.606;7.576;2024-02-21T11:03:57;8.23;;;4.90;;
10586;SDS011;5341;47.606;7.576;2024-02-21T11:06:28;7.03;;;4.30;;
10586;SDS011;5341;47.606;7.576;2024-02-21T11:09:01;7.97;;;4.72;;
10586;SDS011;5341;47.606;7.576;2024-02-21T11:11:30;6.63;;;4.55;;
10586;SDS011;5341;47.606;7.576;2024-02-21T11:14:03;8.63;;;4.22;;
10586;SDS011;5341;47.606;7.576;2024-02-21T11:16:35;7.75;;;4.50;;
10586;SDS011;5341;47.606;7.576;2024-02-21T11:19:08;8.32;;;4.55;;
10586;SDS011;5341;47.606;7.576;2024-02-21T11:21:36;8.93;;;4.60;;
10586;SDS011;5341;47.606;7.576;2024-02-21T11:24:08;8.90;;;4.43;;
10586;SDS011;5341;47.606;7.576;2024-02-21T11:26:36;6.60;;;3.70;;
10586;SDS011;5341;47.606;7.576;2024-02-21T11:29:05;9.10;;;4.43;;
10586;SDS011;5341;47.606;7.576;2024-02-21T11:31:40;7.15;;;4.15;;
10586;SDS011;5341;47.606;7.576;2024-02-21T11:34:08;7.38;;;4.20;;
10586;SDS011;5341;47.606;7.576;2024-02-21T11:36:46;9.48;;;4.38;;
10586;SDS011;5341;47.606;7.576;2024-02-21T11:39:23;5.10;;;3.63;;
10586;SDS011;5341;47.606;7.576;2024-02-21T11:42:02;7.10;;;3.92;;
10586;SDS011;5341;47.606;7.576;2024-02-21T11:44:31;5.28;;;3.30;;
10586;SDS011;5341;47.606;7.576;2024-02-21T11:47:00;4.75;;;3.20;;
10586;SDS011;5341;47.606;7.576;2024-02-21T11:49:35;4.43;;;3.08;;
10586;SDS011;5341;47.606;7.576;2024-02-21T11:52:07;4.47;;;3.40;;
10586;SDS011;5341;47.606;7.576;2024-02-21T11:54:37;5.82;;;3.50;;
10586;SDS011;5341;47.606;7.576;2024-02-21T11:57:05;5.18;;;3.30;;
10586;SDS011;5341;47.606;7.576;2024-02-21T11:59:34;5.72;;;3.47;;
10586;SDS011;5341;47.606;7.576;2024-02-21T12:02:15;4.50;;;3.05;;
10586;SDS011;5341;47.606;7.576;2024-02-21T12:04:49;4.80;;;3.15;;
10586;SDS011;5341;47.606;7.576;2024-02-21T12:07:17;7.00;;;3.50;;
10586;SDS011;5341;47.606;7.576;2024-02-21T12:09:47;6.05;;;3.42;;
10586;SDS011;5341;47.606;7.576;2024-02-21T12:12:19;5.13;;;3.30;;
10586;SDS011;5341;47.606;7.576;2024-02-21T12:14:56;4.70;;;3.03;;
10586;SDS011;5341;47.606;7.576;2024-02-21T12:17:35;5.50;;;3.35;;
10586;SDS011;5341;47.606;7.576;2024-02-21T12:20:07;4.47;;;3.13;;
10586;SDS011;5341;47.606;7.576;2024-02-21T12:22:44;6.10;;;3.40;;
10586;SDS011;5341;47.606;7.576;2024-02-21T12:25:34;5.97;;;2.85;;
10586;SDS011;5341;47.606;7.576;2024-02-21T12:28:20;3.92;;;2.83;;
10586;SDS011;5341;47.606;7.576;2024-02-21T12:30:50;4.03;;;2.60;;
10586;SDS011;5341;47.606;7.576;2024-02-21T12:33:19;7.25;;;3.08;;
10586;SDS011;5341;47.606;7.576;2024-02-21T12:35:50;6.22;;;2.50;;
10586;SDS011;5341;47.606;7.576;2024-02-21T12:38:23;5.45;;;2.75;;
10586;SDS011;5341;47.606;7.576;2024-02-21T12:40:57;3.20;;;2.30;;
10586;SDS011;5341;47.606;7.576;2024-02-21T12:43:39;3.80;;;2.17;;
10586;SDS011;5341;47.606;7.576;2024-02-21T12:46:19;5.00;;;2.30;;
10586;SDS011;5341;47.606;7.576;2024-02-21T12:48:56;3.45;;;2.30;;
10586;SDS011;5341;47.606;7.576;2024-02-21T12:51:32;3.03;;;2.17;;
10586;SDS011;5341;47.606;7.576;2024-02-21T12:54:12;3.92;;;2.13;;
10586;SDS011;5341;47.606;7.576;2024-02-21T12:56:46;5.18;;;2.40;;
10586;SDS011;5341;47.606;7.576;2024-02-21T12:59:18;4.00;;;2.28;;
10586;SDS011;5341;47.606;7.576;2024-02-21T13:01:48;3.08;;;2.10;;
10586;SDS011;5341;47.606;7.576;2024-02-21T13:04:18;6.38;;;2.17;;
10586;SDS011;5341;47.606;7.576;2024-02-21T13:06:49;3.97;;;2.13;;
10586;SDS011;5341;47.606;7.576;2024-02-21T13:09:23;3.40;;;2.00;;
10586;SDS011;5341;47.606;7.576;2024-02-21T13:12:00;4.05;;;2.38;;
10586;SDS011;5341;47.606;7.576;2024-02-21T13:14:34;4.80;;;2.20;;
10586;SDS011;5341;47.606;7.576;2024-02-21T13:17:04;4.13;;;2.28;;
10586;SDS011;5341;47.606;7.576;2024-02-21T13:19:33;3.83;;;2.40;;
10586;SDS011;5341;47.606;7.576;2024-02-21T13:22:00;4.47;;;2.20;;
10586;SDS011;5341;47.606;7.576;2024-02-21T13:24:29;4.40;;;2.40;;
10586;SDS011;5341;47.606;7.576;2024-02-21T13:26:59;3.47;;;2.20;;
10586;SDS011;5341;47.606;7.576;2024-02-21T13:29:26;3.70;;;2.13;;
10586;SDS011;5341;47.606;7.576;2024-02-21T13:31:54;4.97;;;2.33;;
10586;SDS011;5341;47.606;7.576;2024-02-21T13:34:21;3.78;;;2.08;;
10586;SDS011;5341;47.606;7.576;2024-02-21T13:36:48;4.15;;;2.53;;
10586;SDS011;5341;47.606;7.576;2024-02-21T13:39:16;4.10;;;2.50;;
10586;SDS011;5341;47.606;7.576;2024-02-21T13:41:44;3.90;;;2.63;;
10586;SDS011;5341;47.606;7.576;2024-02-21T13:44:13;2.88;;;2.28;;
10586;SDS011;5341;47.606;7.576;2024-02-21T13:46:41;3.85;;;2.45;;
10586;SDS011;5341;47.606;7.576;2024-02-21T13:49:08;3.35;;;2.20;;
10586;SDS011;5341;47.606;7.576;2024-02-21T13:51:35;4.20;;;2.45;;
10586;SDS011;5341;47.606;7.576;2024-02-21T13:54:04;4.15;;;2.17;;
10586;SDS011;5341;47.606;7.576;2024-02-21T13:56:34;3.97;;;2.50;;
10586;SDS011;5341;47.606;7.576;2024-02-21T13:59:01;2.45;;;2.03;;
10586;SDS011;5341;47.606;7.576;2024-02-21T14:01:31;3.97;;;2.35;;
10586;SDS011;5341;47.606;7.576;2024-02-21T14:03:59;3.13;;;2.17;;
10586;SDS011;5341;47.606;7.576;2024-02-21T14:06:26;3.38;;;2.00;;
10586;SDS011;5341;47.606;7.576;2024-02-21T14:08:54;5.65;;;1.95;;
10586;SDS011;5341;47.606;7.576;2024-02-21T14:11:21;4.32;;;2.35;;
10586;SDS011;5341;47.606;7.576;2024-02-21T14:13:48;4.15;;;2.22;;
10586;SDS011;5341;47.606;7.576;2024-02-21T14:16:15;4.57;;;2.30;;
10586;SDS011;5341;47.606;7.576;2024-02-21T14:18:44;3.25;;;2.17;;
10586;SDS011;5341;47.606;7.576;2024-02-21T14:21:12;3.08;;;2.28;;
10586;SDS011;5341;47.606;7.576;2024-02-21T14:23:41;3.45;;;2.17;;
10586;SDS011;5341;47.606;7.576;2024-02-21T14:26:09;3.25;;;1.90;;
10586;SDS011;5341;47.606;7.576;2024-02-21T14:28:38;3.05;;;2.08;;
10586;SDS011;5341;47.606;7.576;2024-02-21T14:31:06;3.50;;;2.45;;
10586;SDS011;5341;47.606;7.576;2024-02-21T14:33:34;3.38;;;2.17;;
10586;SDS011;5341;47.606;7.576;2024-02-21T14:36:04;4.47;;;2.30;;
10586;SDS011;5341;47.606;7.576;2024-02-21T14:38:33;3.60;;;2.28;;
10586;SDS011;5341;47.606;7.576;2024-02-21T14:41:01;4.15;;;2.20;;
10586;SDS011;5341;47.606;7.576;2024-02-21T14:43:29;4.15;;;2.33;;
10586;SDS011;5341;47.606;7.576;2024-02-21T14:45:56;5.10;;;2.42;;
10586;SDS011;5341;47.606;7.576;2024-02-21T14:48:24;2.70;;;2.20;;
10586;SDS011;5341;47.606;7.576;2024-02-21T14:50:54;5.20;;;2.55;;
10586;SDS011;5341;47.606;7.576;2024-02-21T14:53:23;3.85;;;2.53;;
10586;SDS011;5341;47.606;7.576;2024-02-21T14:55:51;2.90;;;2.22;;
10586;SDS011;5341;47.606;7.576;2024-02-21T14:58:18;4.07;;;2.30;;
10586;SDS011;5341;47.606;7.576;2024-02-21T15:00:45;7.40;;;2.47;;
10586;SDS011;5341;47.606;7.576;2024-02-21T15:03:13;5.35;;;2.50;;
10586;SDS011;5341;47.606;7.576;2024-02-21T15:05:41;3.97;;;2.15;;
10586;SDS011;5341;47.606;7.576;2024-02-21T15:08:09;7.00;;;2.60;;
10586;SDS011;5341;47.606;7.576;2024-02-21T15:10:38;5.00;;;2.30;;